sensor_id;sensor_type;location;lat;lon;timestamp;temperature;humidity
41481;DHT22;27217;51.220;5.308;2023-07-02T00:01:51;17.20;99.90
41481;DHT22;27217;51.220;5.308;2023-07-02T00:04:17;17.10;99.90
41481;DHT22;27217;51.220;5.308;2023-07-02T00:06:45;17.20;99.90
41481;DHT22;27217;51.220;5.308;2023-07-02T00:09:12;17.30;99.90
41481;DHT22;27217;51.220;5.308;2023-07-02T00:11:38;17.30;99.90
41481;DHT22;27217;51.220;5.308;2023-07-02T00:14:05;17.10;99.90
41481;DHT22;27217;51.220;5.308;2023-07-02T00:16:32;17.20;99.90
41481;DHT22;27217;51.220;5.308;2023-07-02T00:18:58;17.20;99.90
41481;DHT22;27217;51.220;5.308;2023-07-02T00:21:26;17.20;99.90
41481;DHT22;27217;51.220;5.308;2023-07-02T00:23:57;17.40;99.90
41481;DHT22;27217;51.220;5.308;2023-07-02T00:26:24;17.30;99.90
41481;DHT22;27217;51.220;5.308;2023-07-02T00:28:51;17.10;99.90
41481;DHT22;27217;51.220;5.308;2023-07-02T00:31:17;17.00;99.90
41481;DHT22;27217;51.220;5.308;2023-07-02T00:33:48;17.10;99.90
41481;DHT22;27217;51.220;5.308;2023-07-02T00:36:14;17.00;99.90
41481;DHT22;27217;51.220;5.308;2023-07-02T00:38:45;17.00;99.90
41481;DHT22;27217;51.220;5.308;2023-07-02T00:41:12;17.10;99.90
41481;DHT22;27217;51.220;5.308;2023-07-02T00:43:38;17.00;99.90
41481;DHT22;27217;51.220;5.308;2023-07-02T00:46:18;17.10;99.90
41481;DHT22;27217;51.220;5.308;2023-07-02T00:48:56;17.10;99.90
41481;DHT22;27217;51.220;5.308;2023-07-02T00:51:24;17.00;99.90
41481;DHT22;27217;51.220;5.308;2023-07-02T00:53:55;17.00;99.90
41481;DHT22;27217;51.220;5.308;2023-07-02T00:56:22;16.90;99.90
41481;DHT22;27217;51.220;5.308;2023-07-02T00:58:50;16.80;99.90
41481;DHT22;27217;51.220;5.308;2023-07-02T01:01:18;16.90;99.90
41481;DHT22;27217;51.220;5.308;2023-07-02T01:04:10;16.80;99.90
41481;DHT22;27217;51.220;5.308;2023-07-02T01:06:38;17.00;99.90
41481;DHT22;27217;51.220;5.308;2023-07-02T01:09:06;17.10;99.90
41481;DHT22;27217;51.220;5.308;2023-07-02T01:14:08;16.90;99.90
41481;DHT22;27217;51.220;5.308;2023-07-02T01:16:35;16.80;99.90
41481;DHT22;27217;51.220;5.308;2023-07-02T01:19:04;16.90;99.90
41481;DHT22;27217;51.220;5.308;2023-07-02T01:21:31;16.80;99.90
41481;DHT22;27217;51.220;5.308;2023-07-02T01:23:58;16.90;99.90
41481;DHT22;27217;51.220;5.308;2023-07-02T01:26:29;17.00;99.90
41481;DHT22;27217;51.220;5.308;2023-07-02T01:28:55;16.90;99.90
41481;DHT22;27217;51.220;5.308;2023-07-02T01:31:20;16.80;99.90
41481;DHT22;27217;51.220;5.308;2023-07-02T01:33:50;16.70;99.90
41481;DHT22;27217;51.220;5.308;2023-07-02T01:36:17;16.80;99.90
41481;DHT22;27217;51.220;5.308;2023-07-02T01:38:43;17.10;99.90
41481;DHT22;27217;51.220;5.308;2023-07-02T01:41:09;17.00;99.90
41481;DHT22;27217;51.220;5.308;2023-07-02T01:43:35;16.80;99.90
41481;DHT22;27217;51.220;5.308;2023-07-02T01:46:01;16.80;99.90
41481;DHT22;27217;51.220;5.308;2023-07-02T01:48:27;16.80;99.90
41481;DHT22;27217;51.220;5.308;2023-07-02T01:50:53;16.80;99.90
41481;DHT22;27217;51.220;5.308;2023-07-02T01:53:19;16.80;99.90
41481;DHT22;27217;51.220;5.308;2023-07-02T01:55:45;16.70;99.90
41481;DHT22;27217;51.220;5.308;2023-07-02T01:58:11;16.80;99.90
41481;DHT22;27217;51.220;5.308;2023-07-02T02:01:00;16.90;99.90
41481;DHT22;27217;51.220;5.308;2023-07-02T02:03:26;16.90;99.90
41481;DHT22;27217;51.220;5.308;2023-07-02T02:05:51;16.90;99.90
41481;DHT22;27217;51.220;5.308;2023-07-02T02:08:17;16.90;99.90
41481;DHT22;27217;51.220;5.308;2023-07-02T02:10:43;16.80;99.90
41481;DHT22;27217;51.220;5.308;2023-07-02T02:13:10;16.90;99.90
41481;DHT22;27217;51.220;5.308;2023-07-02T02:15:36;16.80;99.90
41481;DHT22;27217;51.220;5.308;2023-07-02T02:18:02;16.90;99.90
41481;DHT22;27217;51.220;5.308;2023-07-02T02:20:29;16.90;99.90
41481;DHT22;27217;51.220;5.308;2023-07-02T02:22:54;16.80;99.90
41481;DHT22;27217;51.220;5.308;2023-07-02T02:25:20;16.80;99.90
41481;DHT22;27217;51.220;5.308;2023-07-02T02:27:46;16.70;99.90
41481;DHT22;27217;51.220;5.308;2023-07-02T02:30:12;16.90;99.90
41481;DHT22;27217;51.220;5.308;2023-07-02T02:32:38;16.80;99.90
41481;DHT22;27217;51.220;5.308;2023-07-02T02:35:05;16.60;99.90
41481;DHT22;27217;51.220;5.308;2023-07-02T02:37:32;16.70;99.90
41481;DHT22;27217;51.220;5.308;2023-07-02T02:39:58;16.70;99.90
41481;DHT22;27217;51.220;5.308;2023-07-02T02:42:25;16.70;99.90
41481;DHT22;27217;51.220;5.308;2023-07-02T02:44:51;16.60;99.90
41481;DHT22;27217;51.220;5.308;2023-07-02T02:47:17;16.70;99.90
41481;DHT22;27217;51.220;5.308;2023-07-02T02:49:43;16.60;99.90
41481;DHT22;27217;51.220;5.308;2023-07-02T02:52:09;16.40;99.90
41481;DHT22;27217;51.220;5.308;2023-07-02T02:54:35;16.50;99.90
41481;DHT22;27217;51.220;5.308;2023-07-02T02:57:01;16.70;99.90
41481;DHT22;27217;51.220;5.308;2023-07-02T02:59:27;16.60;99.90
41481;DHT22;27217;51.220;5.308;2023-07-02T03:01:53;16.70;99.90
41481;DHT22;27217;51.220;5.308;2023-07-02T03:04:19;16.60;99.90
41481;DHT22;27217;51.220;5.308;2023-07-02T03:06:51;16.60;99.90
41481;DHT22;27217;51.220;5.308;2023-07-02T03:09:17;16.60;99.90
41481;DHT22;27217;51.220;5.308;2023-07-02T03:11:43;16.70;99.90
41481;DHT22;27217;51.220;5.308;2023-07-02T03:14:09;16.70;99.90
41481;DHT22;27217;51.220;5.308;2023-07-02T03:16:35;16.40;99.90
41481;DHT22;27217;51.220;5.308;2023-07-02T03:19:01;16.20;99.90
41481;DHT22;27217;51.220;5.308;2023-07-02T03:21:26;16.30;99.90
41481;DHT22;27217;51.220;5.308;2023-07-02T03:23:53;16.40;99.90
41481;DHT22;27217;51.220;5.308;2023-07-02T03:26:18;16.20;99.90
41481;DHT22;27217;51.220;5.308;2023-07-02T03:28:45;16.20;99.90
41481;DHT22;27217;51.220;5.308;2023-07-02T03:31:10;16.40;99.90
41481;DHT22;27217;51.220;5.308;2023-07-02T03:33:36;16.50;99.90
41481;DHT22;27217;51.220;5.308;2023-07-02T03:36:02;16.50;99.90
41481;DHT22;27217;51.220;5.308;2023-07-02T03:38:28;16.20;99.90
41481;DHT22;27217;51.220;5.308;2023-07-02T03:40:54;16.30;99.90
41481;DHT22;27217;51.220;5.308;2023-07-02T03:43:20;16.30;99.90
41481;DHT22;27217;51.220;5.308;2023-07-02T03:45:46;16.20;99.90
41481;DHT22;27217;51.220;5.308;2023-07-02T03:48:12;16.30;99.90
41481;DHT22;27217;51.220;5.308;2023-07-02T03:50:38;16.40;99.90
41481;DHT22;27217;51.220;5.308;2023-07-02T03:53:04;16.50;99.90
41481;DHT22;27217;51.220;5.308;2023-07-02T03:55:31;16.30;99.90
41481;DHT22;27217;51.220;5.308;2023-07-02T03:57:56;16.20;99.90
41481;DHT22;27217;51.220;5.308;2023-07-02T04:00:23;16.30;99.90
41481;DHT22;27217;51.220;5.308;2023-07-02T04:02:49;16.40;99.90
41481;DHT22;27217;51.220;5.308;2023-07-02T04:05:15;16.10;99.90
41481;DHT22;27217;51.220;5.308;2023-07-02T04:07:42;16.00;99.90
41481;DHT22;27217;51.220;5.308;2023-07-02T04:10:08;16.30;99.90
41481;DHT22;27217;51.220;5.308;2023-07-02T04:12:34;16.30;99.90
41481;DHT22;27217;51.220;5.308;2023-07-02T04:15:00;16.30;99.90
41481;DHT22;27217;51.220;5.308;2023-07-02T04:17:26;16.40;99.90
41481;DHT22;27217;51.220;5.308;2023-07-02T04:19:54;16.50;99.90
41481;DHT22;27217;51.220;5.308;2023-07-02T04:22:20;16.40;99.90
41481;DHT22;27217;51.220;5.308;2023-07-02T04:24:46;16.30;99.90
41481;DHT22;27217;51.220;5.308;2023-07-02T04:27:15;16.40;99.90
41481;DHT22;27217;51.220;5.308;2023-07-02T04:29:43;16.50;99.90
41481;DHT22;27217;51.220;5.308;2023-07-02T04:32:09;16.80;99.90
41481;DHT22;27217;51.220;5.308;2023-07-02T04:34:38;16.70;99.90
41481;DHT22;27217;51.220;5.308;2023-07-02T04:37:04;16.70;99.90
41481;DHT22;27217;51.220;5.308;2023-07-02T04:39:30;16.70;99.90
41481;DHT22;27217;51.220;5.308;2023-07-02T04:41:56;16.80;99.90
41481;DHT22;27217;51.220;5.308;2023-07-02T04:44:22;16.90;99.90
41481;DHT22;27217;51.220;5.308;2023-07-02T04:47:01;16.60;99.90
41481;DHT22;27217;51.220;5.308;2023-07-02T04:49:27;16.60;99.90
41481;DHT22;27217;51.220;5.308;2023-07-02T04:51:53;16.50;99.90
41481;DHT22;27217;51.220;5.308;2023-07-02T04:54:22;16.90;99.90
41481;DHT22;27217;51.220;5.308;2023-07-02T04:56:48;16.70;99.90
41481;DHT22;27217;51.220;5.308;2023-07-02T04:59:14;16.60;99.90
41481;DHT22;27217;51.220;5.308;2023-07-02T05:01:41;16.60;99.90
41481;DHT22;27217;51.220;5.308;2023-07-02T05:04:10;16.70;99.90
41481;DHT22;27217;51.220;5.308;2023-07-02T05:06:39;16.50;99.90
41481;DHT22;27217;51.220;5.308;2023-07-02T05:09:08;16.40;99.90
41481;DHT22;27217;51.220;5.308;2023-07-02T05:11:34;16.40;99.90
41481;DHT22;27217;51.220;5.308;2023-07-02T05:14:00;16.60;99.90
41481;DHT22;27217;51.220;5.308;2023-07-02T05:16:26;16.40;99.90
41481;DHT22;27217;51.220;5.308;2023-07-02T05:18:51;16.60;99.90
41481;DHT22;27217;51.220;5.308;2023-07-02T05:21:18;16.70;99.90
41481;DHT22;27217;51.220;5.308;2023-07-02T05:23:44;16.70;99.90
41481;DHT22;27217;51.220;5.308;2023-07-02T05:26:10;16.90;99.90
41481;DHT22;27217;51.220;5.308;2023-07-02T05:28:36;16.90;99.90
41481;DHT22;27217;51.220;5.308;2023-07-02T05:31:05;17.10;99.90
41481;DHT22;27217;51.220;5.308;2023-07-02T05:33:31;17.20;99.90
41481;DHT22;27217;51.220;5.308;2023-07-02T05:35:58;16.90;99.90
41481;DHT22;27217;51.220;5.308;2023-07-02T05:38:25;16.90;99.90
41481;DHT22;27217;51.220;5.308;2023-07-02T05:40:51;17.10;99.90
41481;DHT22;27217;51.220;5.308;2023-07-02T05:43:17;17.00;99.90
41481;DHT22;27217;51.220;5.308;2023-07-02T05:45:43;16.70;99.90
41481;DHT22;27217;51.220;5.308;2023-07-02T05:48:09;16.90;99.90
41481;DHT22;27217;51.220;5.308;2023-07-02T05:50:35;17.20;99.90
41481;DHT22;27217;51.220;5.308;2023-07-02T05:53:00;17.40;99.90
41481;DHT22;27217;51.220;5.308;2023-07-02T05:55:26;17.10;99.90
41481;DHT22;27217;51.220;5.308;2023-07-02T05:57:52;17.10;99.90
41481;DHT22;27217;51.220;5.308;2023-07-02T06:00:18;17.10;99.90
41481;DHT22;27217;51.220;5.308;2023-07-02T06:02:46;17.00;99.90
41481;DHT22;27217;51.220;5.308;2023-07-02T06:05:12;17.10;99.90
41481;DHT22;27217;51.220;5.308;2023-07-02T06:07:37;17.30;99.90
41481;DHT22;27217;51.220;5.308;2023-07-02T06:10:03;17.20;99.90
41481;DHT22;27217;51.220;5.308;2023-07-02T06:12:29;17.30;99.90
41481;DHT22;27217;51.220;5.308;2023-07-02T06:14:55;17.50;99.90
41481;DHT22;27217;51.220;5.308;2023-07-02T06:17:21;17.50;99.90
41481;DHT22;27217;51.220;5.308;2023-07-02T06:19:48;17.80;99.90
41481;DHT22;27217;51.220;5.308;2023-07-02T06:22:14;17.80;99.90
41481;DHT22;27217;51.220;5.308;2023-07-02T06:24:39;17.60;99.90
41481;DHT22;27217;51.220;5.308;2023-07-02T06:27:05;17.50;99.90
41481;DHT22;27217;51.220;5.308;2023-07-02T06:29:31;17.60;99.90
41481;DHT22;27217;51.220;5.308;2023-07-02T06:31:57;17.50;99.90
41481;DHT22;27217;51.220;5.308;2023-07-02T06:34:22;17.70;99.90
41481;DHT22;27217;51.220;5.308;2023-07-02T06:36:48;17.80;99.90
41481;DHT22;27217;51.220;5.308;2023-07-02T06:39:15;17.70;99.90
41481;DHT22;27217;51.220;5.308;2023-07-02T06:41:40;17.90;99.90
41481;DHT22;27217;51.220;5.308;2023-07-02T06:44:06;18.10;99.90
41481;DHT22;27217;51.220;5.308;2023-07-02T06:46:32;18.00;99.90
41481;DHT22;27217;51.220;5.308;2023-07-02T06:48:58;17.90;99.90
41481;DHT22;27217;51.220;5.308;2023-07-02T06:51:24;18.00;99.90
41481;DHT22;27217;51.220;5.308;2023-07-02T06:53:52;18.00;99.90
41481;DHT22;27217;51.220;5.308;2023-07-02T06:56:18;18.20;99.90
41481;DHT22;27217;51.220;5.308;2023-07-02T06:58:43;18.40;99.90
41481;DHT22;27217;51.220;5.308;2023-07-02T07:01:09;18.40;99.90
41481;DHT22;27217;51.220;5.308;2023-07-02T07:03:35;18.30;99.90
41481;DHT22;27217;51.220;5.308;2023-07-02T07:06:02;18.30;99.90
41481;DHT22;27217;51.220;5.308;2023-07-02T07:08:29;18.30;99.90
41481;DHT22;27217;51.220;5.308;2023-07-02T07:10:54;18.80;99.90
41481;DHT22;27217;51.220;5.308;2023-07-02T07:13:20;19.20;99.90
41481;DHT22;27217;51.220;5.308;2023-07-02T07:15:46;19.40;99.90
41481;DHT22;27217;51.220;5.308;2023-07-02T07:18:12;18.90;99.90
41481;DHT22;27217;51.220;5.308;2023-07-02T07:20:39;18.90;99.90
41481;DHT22;27217;51.220;5.308;2023-07-02T07:23:06;18.90;99.90
41481;DHT22;27217;51.220;5.308;2023-07-02T07:25:34;19.50;99.90
41481;DHT22;27217;51.220;5.308;2023-07-02T07:28:01;19.40;99.90
41481;DHT22;27217;51.220;5.308;2023-07-02T07:30:27;19.20;99.90
41481;DHT22;27217;51.220;5.308;2023-07-02T07:32:53;19.30;99.90
41481;DHT22;27217;51.220;5.308;2023-07-02T07:35:20;19.20;99.90
41481;DHT22;27217;51.220;5.308;2023-07-02T07:37:47;18.90;99.90
41481;DHT22;27217;51.220;5.308;2023-07-02T07:40:13;18.70;99.90
41481;DHT22;27217;51.220;5.308;2023-07-02T07:42:40;18.60;99.90
41481;DHT22;27217;51.220;5.308;2023-07-02T07:45:06;18.10;99.90
41481;DHT22;27217;51.220;5.308;2023-07-02T07:47:33;18.00;99.90
41481;DHT22;27217;51.220;5.308;2023-07-02T07:49:59;18.20;99.90
41481;DHT22;27217;51.220;5.308;2023-07-02T07:52:25;17.90;99.90
41481;DHT22;27217;51.220;5.308;2023-07-02T07:54:50;18.20;99.90
41481;DHT22;27217;51.220;5.308;2023-07-02T07:57:16;18.20;99.90
41481;DHT22;27217;51.220;5.308;2023-07-02T07:59:42;18.20;99.90
41481;DHT22;27217;51.220;5.308;2023-07-02T08:02:08;18.20;99.90
41481;DHT22;27217;51.220;5.308;2023-07-02T08:04:37;18.40;99.90
41481;DHT22;27217;51.220;5.308;2023-07-02T08:07:03;18.50;99.90
41481;DHT22;27217;51.220;5.308;2023-07-02T08:09:29;18.30;99.90
41481;DHT22;27217;51.220;5.308;2023-07-02T08:11:55;18.10;99.90
41481;DHT22;27217;51.220;5.308;2023-07-02T08:14:21;18.20;99.90
41481;DHT22;27217;51.220;5.308;2023-07-02T08:16:47;18.00;99.90
41481;DHT22;27217;51.220;5.308;2023-07-02T08:19:13;18.20;99.90
41481;DHT22;27217;51.220;5.308;2023-07-02T08:21:39;18.60;99.90
41481;DHT22;27217;51.220;5.308;2023-07-02T08:24:05;18.60;99.90
41481;DHT22;27217;51.220;5.308;2023-07-02T08:26:31;18.60;99.90
41481;DHT22;27217;51.220;5.308;2023-07-02T08:28:57;18.90;99.90
41481;DHT22;27217;51.220;5.308;2023-07-02T08:31:23;18.70;99.90
41481;DHT22;27217;51.220;5.308;2023-07-02T08:33:49;18.60;99.90
41481;DHT22;27217;51.220;5.308;2023-07-02T08:36:15;18.60;99.90
41481;DHT22;27217;51.220;5.308;2023-07-02T08:38:41;18.70;99.90
41481;DHT22;27217;51.220;5.308;2023-07-02T08:41:08;18.90;94.80
41481;DHT22;27217;51.220;5.308;2023-07-02T08:43:35;19.00;95.00
41481;DHT22;27217;51.220;5.308;2023-07-02T08:46:02;18.90;94.30
41481;DHT22;27217;51.220;5.308;2023-07-02T08:48:28;18.70;94.40
41481;DHT22;27217;51.220;5.308;2023-07-02T08:50:55;19.00;94.50
41481;DHT22;27217;51.220;5.308;2023-07-02T08:53:21;19.50;93.10
41481;DHT22;27217;51.220;5.308;2023-07-02T08:55:55;19.80;91.70
41481;DHT22;27217;51.220;5.308;2023-07-02T08:58:21;20.10;90.90
41481;DHT22;27217;51.220;5.308;2023-07-02T09:01:10;20.10;90.40
41481;DHT22;27217;51.220;5.308;2023-07-02T09:03:40;19.90;90.20
41481;DHT22;27217;51.220;5.308;2023-07-02T09:06:07;19.30;91.40
41481;DHT22;27217;51.220;5.308;2023-07-02T09:08:34;19.60;91.00
41481;DHT22;27217;51.220;5.308;2023-07-02T09:11:07;19.70;91.30
41481;DHT22;27217;51.220;5.308;2023-07-02T09:13:46;19.90;91.10
41481;DHT22;27217;51.220;5.308;2023-07-02T09:16:27;20.00;91.40
41481;DHT22;27217;51.220;5.308;2023-07-02T09:21:48;20.70;90.40
41481;DHT22;27217;51.220;5.308;2023-07-02T09:24:21;21.40;89.80
41481;DHT22;27217;51.220;5.308;2023-07-02T09:29:37;20.80;90.60
41481;DHT22;27217;51.220;5.308;2023-07-02T09:32:05;21.00;90.30
41481;DHT22;27217;51.220;5.308;2023-07-02T09:34:35;21.30;84.80
41481;DHT22;27217;51.220;5.308;2023-07-02T09:37:03;21.40;83.40
41481;DHT22;27217;51.220;5.308;2023-07-02T09:39:32;21.10;82.90
41481;DHT22;27217;51.220;5.308;2023-07-02T09:42:00;21.10;83.60
41481;DHT22;27217;51.220;5.308;2023-07-02T09:47:02;20.70;83.80
41481;DHT22;27217;51.220;5.308;2023-07-02T09:49:35;21.00;84.30
41481;DHT22;27217;51.220;5.308;2023-07-02T09:52:02;20.40;86.70
41481;DHT22;27217;51.220;5.308;2023-07-02T09:54:29;19.70;89.40
41481;DHT22;27217;51.220;5.308;2023-07-02T09:56:59;19.30;90.90
41481;DHT22;27217;51.220;5.308;2023-07-02T09:59:25;19.60;91.10
41481;DHT22;27217;51.220;5.308;2023-07-02T10:01:51;19.30;91.90
41481;DHT22;27217;51.220;5.308;2023-07-02T10:04:19;19.60;92.80
41481;DHT22;27217;51.220;5.308;2023-07-02T10:06:56;19.90;91.50
41481;DHT22;27217;51.220;5.308;2023-07-02T10:09:44;20.00;91.50
41481;DHT22;27217;51.220;5.308;2023-07-02T10:12:21;20.00;91.00
41481;DHT22;27217;51.220;5.308;2023-07-02T10:14:48;20.60;90.40
41481;DHT22;27217;51.220;5.308;2023-07-02T10:17:53;21.30;87.80
41481;DHT22;27217;51.220;5.308;2023-07-02T10:20:31;21.70;87.40
41481;DHT22;27217;51.220;5.308;2023-07-02T10:22:59;21.80;86.90
41481;DHT22;27217;51.220;5.308;2023-07-02T10:25:28;20.80;90.60
41481;DHT22;27217;51.220;5.308;2023-07-02T10:27:54;20.40;90.50
41481;DHT22;27217;51.220;5.308;2023-07-02T10:30:37;20.80;91.00
41481;DHT22;27217;51.220;5.308;2023-07-02T10:33:17;20.90;91.10
41481;DHT22;27217;51.220;5.308;2023-07-02T10:35:45;20.70;91.70
41481;DHT22;27217;51.220;5.308;2023-07-02T10:40:42;21.00;90.80
41481;DHT22;27217;51.220;5.308;2023-07-02T10:43:09;21.30;89.80
41481;DHT22;27217;51.220;5.308;2023-07-02T10:45:35;21.50;90.00
41481;DHT22;27217;51.220;5.308;2023-07-02T10:48:10;22.20;88.90
41481;DHT22;27217;51.220;5.308;2023-07-02T10:50:36;22.50;85.50
41481;DHT22;27217;51.220;5.308;2023-07-02T10:53:03;22.50;83.20
41481;DHT22;27217;51.220;5.308;2023-07-02T10:55:29;22.20;83.30
41481;DHT22;27217;51.220;5.308;2023-07-02T10:58:08;22.20;86.10
41481;DHT22;27217;51.220;5.308;2023-07-02T11:00:48;21.80;87.00
41481;DHT22;27217;51.220;5.308;2023-07-02T11:03:27;21.90;86.20
41481;DHT22;27217;51.220;5.308;2023-07-02T11:05:53;21.00;89.40
41481;DHT22;27217;51.220;5.308;2023-07-02T11:08:19;21.00;90.30
41481;DHT22;27217;51.220;5.308;2023-07-02T11:10:48;20.90;91.00
41481;DHT22;27217;51.220;5.308;2023-07-02T11:13:16;21.20;90.50
41481;DHT22;27217;51.220;5.308;2023-07-02T11:15:43;21.70;90.10
41481;DHT22;27217;51.220;5.308;2023-07-02T11:18:14;21.80;89.80
41481;DHT22;27217;51.220;5.308;2023-07-02T11:20:41;21.50;89.30
41481;DHT22;27217;51.220;5.308;2023-07-02T11:25:57;21.00;92.10
41481;DHT22;27217;51.220;5.308;2023-07-02T11:28:24;20.50;93.00
41481;DHT22;27217;51.220;5.308;2023-07-02T11:30:51;20.70;93.20
41481;DHT22;27217;51.220;5.308;2023-07-02T11:33:17;20.70;92.90
41481;DHT22;27217;51.220;5.308;2023-07-02T11:35:43;21.10;92.40
41481;DHT22;27217;51.220;5.308;2023-07-02T11:38:10;21.30;92.30
41481;DHT22;27217;51.220;5.308;2023-07-02T11:40:37;21.30;92.30
41481;DHT22;27217;51.220;5.308;2023-07-02T11:43:03;21.30;91.50
41481;DHT22;27217;51.220;5.308;2023-07-02T11:45:28;21.80;91.60
41481;DHT22;27217;51.220;5.308;2023-07-02T11:47:54;23.20;89.20
41481;DHT22;27217;51.220;5.308;2023-07-02T11:50:21;24.50;81.50
41481;DHT22;27217;51.220;5.308;2023-07-02T11:52:46;23.70;80.80
41481;DHT22;27217;51.220;5.308;2023-07-02T11:55:12;23.70;81.40
41481;DHT22;27217;51.220;5.308;2023-07-02T11:57:38;25.20;76.80
41481;DHT22;27217;51.220;5.308;2023-07-02T12:00:05;25.00;74.00
41481;DHT22;27217;51.220;5.308;2023-07-02T12:02:31;23.30;77.80
41481;DHT22;27217;51.220;5.308;2023-07-02T12:04:56;23.10;80.20
41481;DHT22;27217;51.220;5.308;2023-07-02T12:07:23;23.10;78.80
41481;DHT22;27217;51.220;5.308;2023-07-02T12:09:51;22.70;82.00
41481;DHT22;27217;51.220;5.308;2023-07-02T12:12:17;22.80;84.40
41481;DHT22;27217;51.220;5.308;2023-07-02T12:14:43;23.10;83.80
41481;DHT22;27217;51.220;5.308;2023-07-02T12:17:09;22.20;86.80
41481;DHT22;27217;51.220;5.308;2023-07-02T12:19:38;22.40;86.80
41481;DHT22;27217;51.220;5.308;2023-07-02T12:22:05;22.20;86.40
41481;DHT22;27217;51.220;5.308;2023-07-02T12:24:31;23.10;84.40
41481;DHT22;27217;51.220;5.308;2023-07-02T12:26:57;23.00;82.10
41481;DHT22;27217;51.220;5.308;2023-07-02T12:29:22;23.70;79.60
41481;DHT22;27217;51.220;5.308;2023-07-02T12:31:48;24.10;78.40
41481;DHT22;27217;51.220;5.308;2023-07-02T12:34:15;25.50;72.40
41481;DHT22;27217;51.220;5.308;2023-07-02T12:36:41;25.20;70.00
41481;DHT22;27217;51.220;5.308;2023-07-02T12:39:07;24.70;70.10
41481;DHT22;27217;51.220;5.308;2023-07-02T12:41:33;22.60;76.30
41481;DHT22;27217;51.220;5.308;2023-07-02T12:43:59;22.40;78.10
41481;DHT22;27217;51.220;5.308;2023-07-02T12:46:25;22.40;76.60
41481;DHT22;27217;51.220;5.308;2023-07-02T12:48:52;22.10;78.90
41481;DHT22;27217;51.220;5.308;2023-07-02T12:51:18;23.10;75.90
41481;DHT22;27217;51.220;5.308;2023-07-02T12:53:44;24.00;71.20
41481;DHT22;27217;51.220;5.308;2023-07-02T12:56:10;24.10;70.90
41481;DHT22;27217;51.220;5.308;2023-07-02T12:58:35;24.40;68.10
41481;DHT22;27217;51.220;5.308;2023-07-02T13:01:01;24.40;66.30
41481;DHT22;27217;51.220;5.308;2023-07-02T13:03:30;24.30;66.60
41481;DHT22;27217;51.220;5.308;2023-07-02T13:05:56;24.90;64.80
41481;DHT22;27217;51.220;5.308;2023-07-02T13:08:24;26.70;60.20
41481;DHT22;27217;51.220;5.308;2023-07-02T13:10:50;28.00;58.40
41481;DHT22;27217;51.220;5.308;2023-07-02T13:13:15;27.70;57.10
41481;DHT22;27217;51.220;5.308;2023-07-02T13:15:42;27.80;57.10
41481;DHT22;27217;51.220;5.308;2023-07-02T13:18:08;28.00;56.40
41481;DHT22;27217;51.220;5.308;2023-07-02T13:20:34;27.20;58.10
41481;DHT22;27217;51.220;5.308;2023-07-02T13:22:59;26.10;59.50
41481;DHT22;27217;51.220;5.308;2023-07-02T13:25:25;25.20;61.00
41481;DHT22;27217;51.220;5.308;2023-07-02T13:27:52;25.30;62.80
41481;DHT22;27217;51.220;5.308;2023-07-02T13:30:17;26.60;60.10
41481;DHT22;27217;51.220;5.308;2023-07-02T13:32:44;28.10;57.50
41481;DHT22;27217;51.220;5.308;2023-07-02T13:35:09;28.00;57.00
41481;DHT22;27217;51.220;5.308;2023-07-02T13:37:35;26.60;58.00
41481;DHT22;27217;51.220;5.308;2023-07-02T13:40:01;26.20;58.40
41481;DHT22;27217;51.220;5.308;2023-07-02T13:42:27;26.10;58.30
41481;DHT22;27217;51.220;5.308;2023-07-02T13:44:53;26.50;57.20
41481;DHT22;27217;51.220;5.308;2023-07-02T13:47:19;27.10;56.40
41481;DHT22;27217;51.220;5.308;2023-07-02T13:49:48;25.20;58.30
41481;DHT22;27217;51.220;5.308;2023-07-02T13:52:14;25.10;60.20
41481;DHT22;27217;51.220;5.308;2023-07-02T13:54:41;24.60;60.50
41481;DHT22;27217;51.220;5.308;2023-07-02T13:57:06;23.30;64.70
41481;DHT22;27217;51.220;5.308;2023-07-02T13:59:32;24.00;64.50
41481;DHT22;27217;51.220;5.308;2023-07-02T14:01:58;25.00;61.00
41481;DHT22;27217;51.220;5.308;2023-07-02T14:04:23;26.70;57.50
41481;DHT22;27217;51.220;5.308;2023-07-02T14:06:49;26.50;57.90
41481;DHT22;27217;51.220;5.308;2023-07-02T14:09:15;25.60;60.10
41481;DHT22;27217;51.220;5.308;2023-07-02T14:11:41;25.30;61.50
41481;DHT22;27217;51.220;5.308;2023-07-02T14:14:09;25.70;60.20
41481;DHT22;27217;51.220;5.308;2023-07-02T14:16:35;25.90;59.80
41481;DHT22;27217;51.220;5.308;2023-07-02T14:19:01;25.50;60.90
41481;DHT22;27217;51.220;5.308;2023-07-02T14:21:27;24.70;62.20
41481;DHT22;27217;51.220;5.308;2023-07-02T14:23:53;25.90;61.70
41481;DHT22;27217;51.220;5.308;2023-07-02T14:26:19;26.20;60.80
41481;DHT22;27217;51.220;5.308;2023-07-02T14:28:45;26.20;60.60
41481;DHT22;27217;51.220;5.308;2023-07-02T14:31:11;26.20;59.90
41481;DHT22;27217;51.220;5.308;2023-07-02T14:33:38;25.50;60.70
41481;DHT22;27217;51.220;5.308;2023-07-02T14:36:05;25.20;61.20
41481;DHT22;27217;51.220;5.308;2023-07-02T14:38:32;24.60;62.20
41481;DHT22;27217;51.220;5.308;2023-07-02T14:40:59;25.90;60.60
41481;DHT22;27217;51.220;5.308;2023-07-02T14:43:27;27.40;57.60
41481;DHT22;27217;51.220;5.308;2023-07-02T14:45:55;28.80;55.80
41481;DHT22;27217;51.220;5.308;2023-07-02T14:48:21;28.30;54.50
41481;DHT22;27217;51.220;5.308;2023-07-02T14:50:52;26.50;57.40
41481;DHT22;27217;51.220;5.308;2023-07-02T14:53:20;25.40;58.80
41481;DHT22;27217;51.220;5.308;2023-07-02T14:55:47;25.80;59.20
41481;DHT22;27217;51.220;5.308;2023-07-02T14:58:15;27.10;57.30
41481;DHT22;27217;51.220;5.308;2023-07-02T15:00:47;28.10;55.30
41481;DHT22;27217;51.220;5.308;2023-07-02T15:03:13;27.80;56.00
41481;DHT22;27217;51.220;5.308;2023-07-02T15:05:39;27.30;56.30
41481;DHT22;27217;51.220;5.308;2023-07-02T15:08:07;27.50;55.50
41481;DHT22;27217;51.220;5.308;2023-07-02T15:10:33;27.10;56.80
41481;DHT22;27217;51.220;5.308;2023-07-02T15:12:59;28.00;55.70
41481;DHT22;27217;51.220;5.308;2023-07-02T15:15:25;27.40;56.70
41481;DHT22;27217;51.220;5.308;2023-07-02T15:17:51;28.10;56.90
41481;DHT22;27217;51.220;5.308;2023-07-02T15:20:17;27.30;56.20
41481;DHT22;27217;51.220;5.308;2023-07-02T15:22:43;26.40;57.80
41481;DHT22;27217;51.220;5.308;2023-07-02T15:25:09;25.80;58.20
41481;DHT22;27217;51.220;5.308;2023-07-02T15:27:34;26.00;58.40
41481;DHT22;27217;51.220;5.308;2023-07-02T15:30:00;27.20;56.20
41481;DHT22;27217;51.220;5.308;2023-07-02T15:32:26;27.30;55.60
41481;DHT22;27217;51.220;5.308;2023-07-02T15:34:52;26.40;57.30
41481;DHT22;27217;51.220;5.308;2023-07-02T15:37:18;25.40;59.40
41481;DHT22;27217;51.220;5.308;2023-07-02T15:39:44;25.80;58.90
41481;DHT22;27217;51.220;5.308;2023-07-02T15:42:10;25.40;58.50
41481;DHT22;27217;51.220;5.308;2023-07-02T15:44:36;25.00;60.10
41481;DHT22;27217;51.220;5.308;2023-07-02T15:47:02;24.20;62.00